Estación de San Javier

Ultimos registro cada 15 minutos 73
Estación Fecha / Hora Temperatura Humedad Lluvia Velocidad Dirección Radiación Presion
73 San Javier 03-05-2026 18:00 15,8 78 0 0 230 0 1017,9
72 San Javier 03-05-2026 17:45 16,3 78 0 0 230 7 1018,1
71 San Javier 03-05-2026 17:30 16,8 76 0 0 230 19 1018
70 San Javier 03-05-2026 17:15 17,1 75 0 0 230 32 1018
69 San Javier 03-05-2026 17:00 17,4 75 0 0 230 47 1018,1
68 San Javier 03-05-2026 16:45 17,7 74 0 0 230 54 1018,1
67 San Javier 03-05-2026 16:30 17,8 71 0 0 230 54 1018,4
66 San Javier 03-05-2026 16:15 17,8 70 0 0 230 104 1017,8
65 San Javier 03-05-2026 16:00 17,8 69 0 0 207 160 1017,8
64 San Javier 03-05-2026 15:45 17,3 71 0 0 227 214 1017,7
63 San Javier 03-05-2026 15:30 17,3 71 0 0 237 113 1018,1
62 San Javier 03-05-2026 15:15 17,1 71 0 0 313 139 1018,1
61 San Javier 03-05-2026 15:00 16,9 71 0 0 313 155 1018
60 San Javier 03-05-2026 14:45 16,8 72 0 0,9 227 195 1017,8
59 San Javier 03-05-2026 14:30 16,7 72 0 1,8 237 302 1018
58 San Javier 03-05-2026 14:15 16,4 75 0 0 302 202 1018,6
57 San Javier 03-05-2026 14:00 16,2 73 0 0 281 163 1018,4
56 San Javier 03-05-2026 13:45 16 74 0 0,4 207 197 1018,5
55 San Javier 03-05-2026 13:30 15,7 74 0 0 222 234 1018,7
54 San Javier 03-05-2026 13:15 15,2 74 0 0,9 315 299 1019
53 San Javier 03-05-2026 13:00 14,6 77 0 0 244 267 1018,8
52 San Javier 03-05-2026 12:45 14 78 0 0 249 236 1018,9
51 San Javier 03-05-2026 12:30 13,7 79 0 0 121 230 1019,1
50 San Javier 03-05-2026 12:15 13,4 80 0 0,9 107 200 1019
49 San Javier 03-05-2026 12:00 13,3 81 0 0,9 205 190 1018,8
48 San Javier 03-05-2026 11:45 13 82 0 0,9 159 207 1018,9
47 San Javier 03-05-2026 11:30 12,8 82 0 0,4 120 225 1019
46 San Javier 03-05-2026 11:15 12,4 84 0 0,9 231 264 1019,2
45 San Javier 03-05-2026 11:00 11,9 86 0 0,9 160 385 1019,4
44 San Javier 03-05-2026 10:45 11,5 88 0 0,4 149 204 1019,3
43 San Javier 03-05-2026 10:30 11 90 0 0 188 258 1019,4
42 San Javier 03-05-2026 10:15 10,6 94 0 0 155 236 1019,2
41 San Javier 03-05-2026 10:00 9,5 96 0 0 165 376 1019,2
40 San Javier 03-05-2026 09:45 8,3 96 0 0 229 290 1019,3
39 San Javier 03-05-2026 09:30 7,3 96 0 0 97 127 1019,1
38 San Javier 03-05-2026 09:15 6,8 96 0 0 97 84 1019,5
37 San Javier 03-05-2026 09:00 6,5 96 0 0,4 97 97 1019,3
36 San Javier 03-05-2026 08:45 6,1 96 0 0 311 70 1019,2
35 San Javier 03-05-2026 08:30 5,1 96 0 0 311 156 1018,9
34 San Javier 03-05-2026 08:15 3,9 96 0 0 312 111 1018,9
33 San Javier 03-05-2026 08:00 3,3 95 0 0 313 44 1018,9
32 San Javier 03-05-2026 07:45 3,1 95 0 0 313 33 1018,6
31 San Javier 03-05-2026 07:30 3,1 95 0 0 312 12 1018,4
30 San Javier 03-05-2026 07:15 2,8 95 0 0 312 0 1018,3
29 San Javier 03-05-2026 07:00 2,4 95 0 0 302 0 1018,3
28 San Javier 03-05-2026 06:45 2,1 95 0 0 302 0 1018,3
27 San Javier 03-05-2026 06:30 1,7 95 0 0 302 0 1017,9
26 San Javier 03-05-2026 06:15 1,4 94 0 0 302 0 1017,9
25 San Javier 03-05-2026 06:00 1,4 94 0,2 0 302 0 1017,9
24 San Javier 03-05-2026 05:45 1,7 94 0 0 302 0 1018
23 San Javier 03-05-2026 05:30 1,8 94 0 0 302 0 1017,5
22 San Javier 03-05-2026 05:15 1,7 94 0 0 302 0 1017,4
21 San Javier 03-05-2026 05:00 1,9 94 0 0 302 0 1017,7
20 San Javier 03-05-2026 04:45 2,1 94 0 0 302 0 1017,8
19 San Javier 03-05-2026 04:30 2,1 94 0 0 302 0 1017,8
18 San Javier 03-05-2026 04:15 2,3 94 0 0 302 0 1018,1
17 San Javier 03-05-2026 04:00 2,3 94 0 0 302 0 1018,2
16 San Javier 03-05-2026 03:45 2,5 94 0 0 302 0 1018,2
15 San Javier 03-05-2026 03:30 2,7 94 0 0 302 0 1018,2
14 San Javier 03-05-2026 03:15 2,7 93 0 0 302 0 1018,3
13 San Javier 03-05-2026 03:00 3,2 94 0 0 302 0 1018,4
12 San Javier 03-05-2026 02:45 3,3 94 0 0 302 0 1018,5
11 San Javier 03-05-2026 02:30 3,4 94 0 0 302 0 1018,5
10 San Javier 03-05-2026 02:15 3,7 94 0 0 302 0 1018,3
9 San Javier 03-05-2026 02:00 3,5 95 0 0 302 0 1018,5
8 San Javier 03-05-2026 01:45 3,1 94 0 0 297 0 1018,8
7 San Javier 03-05-2026 01:30 3,1 93 0 0 297 0 1018,3
6 San Javier 03-05-2026 01:15 3,4 93 0 0 297 0 1018,7
5 San Javier 03-05-2026 01:00 3,6 94 0 0 297 0 1018,2
4 San Javier 03-05-2026 00:45 3,6 93 0 0 297 0 1018,3
3 San Javier 03-05-2026 00:30 3,6 92 0 0 297 0 1018,4
2 San Javier 03-05-2026 00:15 3,8 93 0 0 297 0 1018,1
1 San Javier 03-05-2026 00:00 4,1 93 0 0 297 0 1017,9